メインページ
METAR-TAF:

METAR-TAF

空港 :

ンジャメナ, チャド

ンジャメナ国際空港

緯度: 12-08N, 経度: 015-02E, 海抜: 295m

現時点の気象観測

当レポートは34分前の15:00(UTC)に作成
南/南東の風 4kt、南東からの間で変化する
気温 36°C
湿度 27%
気圧 1009 hPa
視程10km以上
高度4000ftの雲はほとんどない

METAR: FTTJ 251500Z 16004KT 130V190 9999 FEW040 36/14 Q1009 NOSIG

時間: 16:34 (15:34 UTC)


TAF: 見つかりません

4,000以上の空港の気象観測と天気予報(METAR報とTAF報)

利用可能な観測所は地図上に黄色い丸と赤い丸で示す。

丸の上にカーソルを重ねると観測所名を参照できる。

次にクリックすると気象観測と天気予報を参照できる。

マップの切り替え:黒色「×」印の緑ボタンをクリックして拡大、「-」印の緑ボタンをクリックして縮小、緑色の三角印をクリックして隣りの地図に切り替え


METAR-TAF: